Lake Levels Lake Levels   »   United States   »   Texas
LAKES RIVERS MARINAS NEWS HOUSES EVENTS MAPS
1,681 Lakes:
Lake Store

Lake Levels in Texas, United States

Lake Name Current
Level
Full Pool +/-
Full Pool
Reading
Date - Time
Alan Henry (TX) 2,218.01 2,224.00 -5.99 4/23/2017  5:30 AM
Amistad (TX) 1,089.98 1,117.00 -27.02 4/23/2017  4:15 AM
Amon Carter (TX) 920.56 920.00 0.56 4/23/2017  12:00 AM
Aquilla (TX) 538.29 537.50 0.79 4/23/2017  5:30 AM
Arlington (TX) 549.30 550.00 -0.70 4/23/2017  5:15 AM
Arrowhead (TX) 925.35 926.00 -0.65 4/23/2017  5:00 AM
Athens (TX) 440.29 440.00 0.29 4/23/2017  5:30 AM
Austin (TX) 492.02 492.80 -0.78 4/23/2017  5:00 AM
Bardwell (TX) 421.40 421.00 0.40 4/23/2017  5:30 AM
Belton (TX) 598.65 594.00 4.65 4/23/2017  5:00 AM
Benbrook (TX) 688.23 694.00 -5.77 4/23/2017  5:00 AM
Bob Sandlin (TX) 338.06 337.50 0.56 4/22/2017  10:04 AM
Bonham (TX) 562.36 565.00 -2.64 4/23/2017  3:00 AM
Brady Creek (TX) 1,737.45 1,743.00 -5.55 4/23/2017  3:45 AM
Bridgeport (TX) 836.39 836.00 0.39 4/23/2017  5:00 AM
Brownwood (TX) 1,424.63 1,425.00 -0.37 4/23/2017  5:30 AM
Buchanan (TX) 1,017.99 1,020.50 -2.51 4/22/2017  10:54 AM
Buffalo Creek (TX) 1,045.60 1,049.00 -3.40 4/23/2017  12:00 AM
Caddo (LA TX) 169.80 168.50 1.30 4/22/2017  8:00 AM
Canyon (TX) 909.24 909.00 0.24 4/23/2017  5:15 AM
Cedar Creek (TX) 321.97 322.00 -0.03 4/23/2017  1:45 AM
Champion Creek (TX) 2,060.61 2,083.00 -22.39 4/22/2017  10:51 AM
Cherokee (TX) 278.38 280.00 -1.62 4/23/2017  4:45 AM
Choke Canyon (TX) 200.15 220.50 -20.35 4/22/2017  7:30 AM
Cisco (TX) 1,519.71 1,520.00 -0.29 4/23/2017  9:30 AM
Coleman (TX) 1,717.18 1,718.00 -0.82 4/23/2017  3:30 AM
Coleto Creek (TX) 97.52 98.28 -0.76 4/23/2017  5:00 AM
Colorado City (TX) 2,056.80 2,070.20 -13.40 4/22/2017  10:51 AM
Conroe (TX) 201.05 201.00 0.05 4/23/2017  5:33 AM
Corpus Christi (TX) 93.17 94.00 -0.83 4/22/2017  10:41 AM
E. V. Spence (TX) 1,848.13 1,898.00 -49.87 4/23/2017  2:00 AM
Eagle Mountain (TX) 649.38 649.00 0.38 4/23/2017  5:00 AM
Falcon (TX) 270.37 301.20 -30.83 4/23/2017  2:15 AM
Fork (TX) 403.15 403.00 0.15 4/23/2017  5:30 AM
Georgetown (TX) 791.11 791.00 0.11 4/23/2017  3:00 AM
Graham (TX) 1,074.73 1,075.00 -0.27 4/23/2017  12:00 AM
Granbury (TX) 692.60 693.00 -0.40 4/23/2017  5:30 AM
Granger (TX) 504.30 504.00 0.30 4/23/2017  5:00 AM
Grapevine (TX) 535.29 535.00 0.29 4/23/2017  5:45 AM
Hords Creek (TX) 1,897.24 1,900.00 -2.76 4/23/2017  12:30 AM
Houston (TX) 42.27 41.70 0.57 4/23/2017  5:30 AM
Hubbard Creek (TX) 1,182.89 1,183.00 -0.11 4/23/2017  3:15 AM
Hubert M Moss (TX) 714.88 715.00 -0.12 4/23/2017  5:15 AM
Inks (TX) 887.02 886.90 0.12 4/23/2017  1:00 AM
Jacksonville (TX) 422.06 422.00 0.06 4/23/2017  12:00 AM
JB Thomas (TX) 2,245.53 2,258.00 -12.47 4/23/2017  5:45 AM
Jim Chapman (TX) 437.10 440.00 -2.90 4/22/2017  10:04 AM
Joe Pool (TX) 522.19 522.00 0.19 4/23/2017  5:00 AM
Kemp (TX) 1,144.37 1,144.00 0.37 4/23/2017  2:15 AM
Kickapoo (TX) 1,043.23 1,045.00 -1.77 4/23/2017  5:00 AM
Lake O' the Pines (TX) 232.98 228.50 4.48 4/22/2017  10:04 AM
Lavon (TX) 491.08 492.00 -0.92 4/23/2017  4:00 AM
Leon (TX) 1,372.62 4/23/2017  12:45 AM
Lewisville (TX) 522.28 522.00 0.28 4/23/2017  12:30 AM
Limestone (TX) 363.20 363.00 0.20 4/23/2017  4:45 AM
Livingston (TX) 131.13 131.00 0.13 4/23/2017  5:15 AM
Lyndon B. Johnson (TX) 824.68 825.00 -0.32 4/22/2017  10:54 AM
MacKenzie (TX) 3,026.91 3,100.00 -73.09 4/23/2017  5:30 AM
Marble Falls (TX) 736.34 737.00 -0.66 4/22/2017  10:54 AM
Martin Creek (TX) 305.63 306.00 -0.37 4/23/2017  5:30 AM
Medina (TX) 1,060.90 1,062.00 -1.10 4/23/2017  5:00 AM
Meredith (TX) 2,876.76 2,941.00 -64.24 4/23/2017  5:30 AM
Mexia (TX) 448.39 448.30 0.09 4/23/2017  5:15 AM
Millers Creek (TX) 1,333.91 1,334.00 -0.09 4/23/2017  3:00 AM
Mineral Wells (TX) 863.50 863.00 0.50 4/23/2017  9:30 AM
Moss Creek (TX) 2,330.87 2,337.00 -6.13 4/23/2017  4:30 AM
Murvaul (TX) 265.29 265.50 -0.21 4/22/2017  10:04 AM
Nacogdoches (TX) 278.48 279.00 -0.52 4/22/2017  10:04 AM
Navarro Mills (TX) 425.47 424.50 0.97 4/23/2017  5:00 AM
Nocona (TX) 827.83 827.00 0.83 4/23/2017  5:00 AM
O. C. Fisher (TX) 1,873.90 1,908.00 -34.10 4/23/2017  1:00 AM
O.H. Ivie (TX) 1,518.72 1,551.50 -32.78 4/23/2017  12:15 AM
Palestine (TX) 345.11 345.00 0.11 4/22/2017  10:04 AM
Palo Pinto (TX) 866.62 867.00 -0.38 4/23/2017  4:15 AM
Pat Cleburne (TX) 733.69 733.60 0.09 4/23/2017  12:00 AM
Pat Mayse (TX) 452.42 451.00 1.42 4/22/2017  10:04 AM
Phantom Hill (TX) 1,635.77 1,635.90 -0.13 4/23/2017  12:30 AM
Possum Kingdom (TX) 998.92 1,000.00 -1.08 4/22/2017  10:10 AM
Proctor (TX) 1,162.04 1,162.00 0.04 4/23/2017  5:30 AM
Ray Hubbard (TX) 435.45 435.50 -0.05 4/23/2017  5:30 AM
Ray Roberts (TX) 633.25 632.50 0.75 4/23/2017  12:15 AM
Red Bluff (TX) 2,824.39 2,827.13 -2.74 4/23/2017  1:15 AM
Richland Chambers (TX) 315.33 315.00 0.33 4/22/2017  10:10 AM
Sam Rayburn (TX) 163.00 164.40 -1.40 4/23/2017  4:00 AM
Somerville (TX) 238.42 238.00 0.42 4/23/2017  4:00 AM
Squaw Creek (TX) 775.26 775.00 0.26 4/23/2017  4:00 AM
Stamford (TX) 1,415.91 1,417.00 -1.09 4/23/2017  4:30 AM
Steinhagen Reservoir (TX) 82.41 82.40 0.01 4/23/2017  5:00 AM
Stillhouse Hollow (TX) 622.91 622.00 0.91 4/23/2017  5:00 AM
Tawakoni (TX) 435.24 437.50 -2.26 4/23/2017  4:30 AM
Texana (TX) 44.05 44.00 0.05 4/23/2017  5:00 AM
Texoma (TX) 614.61 617.00 -2.39 4/23/2017  5:00 AM
Toledo Bend (TX LA) 170.72 172.00 -1.28 4/23/2017  5:30 AM
Travis (TX) 680.97 681.00 -0.03 4/23/2017  5:00 AM
Twin Buttes (TX) 1,906.75 1,940.00 -33.25 4/10/2017  12:00 AM
Tyler (TX) 375.50 375.50 -0.00 4/22/2017  10:04 AM
Waco (TX) 462.31 462.00 0.31 4/23/2017  5:15 AM
Waxahachie (TX) 531.90 4/10/2017  12:00 AM
White River (TX) 2,352.53 4/23/2017  2:15 AM
Whitney (TX) 531.11 533.00 -1.89 4/23/2017  3:15 AM
Worth (TX) 594.33 594.00 0.33 4/23/2017  5:00 AM
Wright Patman (TX) 226.80 220.60 6.20 4/21/2017  9:50 AM


CURRENT DAILY STREAMFLOW CONDITIONS
High
90th percentile
75th - 89th percentile
25th - 74th percentile
10th - 24th percentile
10th percentile
Low
Not ranked

The colored dots on this map depict streamflow conditions as a percentile, which is computed from the period of record for the current day of the year. Only stations with at least 30 years of record are used. The gray circles indicate other stations that were not ranked in percentiles either because they have fewer than 30 years of record or because they report parameters other than streamflow. Some stations, for example, measure stage only.
U.S. Daily Streamflow Conditions



U.S. Drought Monitor